sensor_id;sensor_type;location;lat;lon;timestamp;temperature;humidity
1351;DHT22;669;50.206;9.998;2022-09-01T00:00:00;17.60;44.20
1351;DHT22;669;50.206;9.998;2022-09-01T00:02:29;17.60;44.20
1351;DHT22;669;50.206;9.998;2022-09-01T00:04:57;17.60;44.30
1351;DHT22;669;50.206;9.998;2022-09-01T00:07:26;17.60;44.40
1351;DHT22;669;50.206;9.998;2022-09-01T00:09:56;17.60;44.00
1351;DHT22;669;50.206;9.998;2022-09-01T00:12:26;17.50;44.30
1351;DHT22;669;50.206;9.998;2022-09-01T00:14:54;17.50;44.20
1351;DHT22;669;50.206;9.998;2022-09-01T00:17:22;17.60;44.40
1351;DHT22;669;50.206;9.998;2022-09-01T00:19:50;17.50;44.30
1351;DHT22;669;50.206;9.998;2022-09-01T00:22:18;17.40;44.40
1351;DHT22;669;50.206;9.998;2022-09-01T00:24:47;17.40;44.50
1351;DHT22;669;50.206;9.998;2022-09-01T00:27:15;17.40;44.60
1351;DHT22;669;50.206;9.998;2022-09-01T00:29:45;17.40;44.60
1351;DHT22;669;50.206;9.998;2022-09-01T00:32:13;17.30;44.50
1351;DHT22;669;50.206;9.998;2022-09-01T00:34:41;17.30;44.70
1351;DHT22;669;50.206;9.998;2022-09-01T00:37:09;17.20;44.90
1351;DHT22;669;50.206;9.998;2022-09-01T00:39:37;17.20;44.90
1351;DHT22;669;50.206;9.998;2022-09-01T00:42:05;17.10;45.00
1351;DHT22;669;50.206;9.998;2022-09-01T00:44:33;17.00;45.40
1351;DHT22;669;50.206;9.998;2022-09-01T00:47:06;17.00;45.30
1351;DHT22;669;50.206;9.998;2022-09-01T00:49:38;17.00;45.30
1351;DHT22;669;50.206;9.998;2022-09-01T00:52:10;17.00;45.40
1351;DHT22;669;50.206;9.998;2022-09-01T00:54:43;17.00;45.40
1351;DHT22;669;50.206;9.998;2022-09-01T00:57:11;16.90;45.70
1351;DHT22;669;50.206;9.998;2022-09-01T00:59:45;16.80;45.80
1351;DHT22;669;50.206;9.998;2022-09-01T01:02:16;16.70;46.10
1351;DHT22;669;50.206;9.998;2022-09-01T01:04:44;16.60;46.60
1351;DHT22;669;50.206;9.998;2022-09-01T01:07:12;16.40;46.60
1351;DHT22;669;50.206;9.998;2022-09-01T01:09:43;16.40;47.30
1351;DHT22;669;50.206;9.998;2022-09-01T01:12:12;16.40;47.20
1351;DHT22;669;50.206;9.998;2022-09-01T01:14:45;16.40;47.10
1351;DHT22;669;50.206;9.998;2022-09-01T01:17:18;16.40;47.10
1351;DHT22;669;50.206;9.998;2022-09-01T01:19:48;16.50;47.00
1351;DHT22;669;50.206;9.998;2022-09-01T01:22:42;16.40;47.00
1351;DHT22;669;50.206;9.998;2022-09-01T01:25:33;16.40;47.60
1351;DHT22;669;50.206;9.998;2022-09-01T01:28:06;16.40;47.60
1351;DHT22;669;50.206;9.998;2022-09-01T01:30:35;16.40;48.00
1351;DHT22;669;50.206;9.998;2022-09-01T01:33:05;16.30;48.00
1351;DHT22;669;50.206;9.998;2022-09-01T01:35:34;16.30;48.30
1351;DHT22;669;50.206;9.998;2022-09-01T01:38:03;16.40;48.30
1351;DHT22;669;50.206;9.998;2022-09-01T01:40:35;16.40;48.20
1351;DHT22;669;50.206;9.998;2022-09-01T01:43:03;16.50;48.60
1351;DHT22;669;50.206;9.998;2022-09-01T01:45:32;16.50;48.10
1351;DHT22;669;50.206;9.998;2022-09-01T01:48:00;16.50;48.40
1351;DHT22;669;50.206;9.998;2022-09-01T01:50:32;16.50;48.90
1351;DHT22;669;50.206;9.998;2022-09-01T01:53:03;16.50;48.70
1351;DHT22;669;50.206;9.998;2022-09-01T01:55:39;16.50;49.30
1351;DHT22;669;50.206;9.998;2022-09-01T01:58:07;16.50;49.20
1351;DHT22;669;50.206;9.998;2022-09-01T02:00:38;16.60;48.50
1351;DHT22;669;50.206;9.998;2022-09-01T02:03:08;16.60;47.90
1351;DHT22;669;50.206;9.998;2022-09-01T02:05:39;16.70;47.60
1351;DHT22;669;50.206;9.998;2022-09-01T02:08:08;16.80;47.30
1351;DHT22;669;50.206;9.998;2022-09-01T02:10:42;16.80;47.00
1351;DHT22;669;50.206;9.998;2022-09-01T02:13:13;16.80;47.00
1351;DHT22;669;50.206;9.998;2022-09-01T02:15:45;16.80;47.00
1351;DHT22;669;50.206;9.998;2022-09-01T02:18:16;16.90;46.70
1351;DHT22;669;50.206;9.998;2022-09-01T02:20:45;16.90;46.30
1351;DHT22;669;50.206;9.998;2022-09-01T02:23:15;16.90;46.20
1351;DHT22;669;50.206;9.998;2022-09-01T02:25:47;16.90;46.20
1351;DHT22;669;50.206;9.998;2022-09-01T02:28:37;16.90;46.00
1351;DHT22;669;50.206;9.998;2022-09-01T02:31:08;16.90;45.90
1351;DHT22;669;50.206;9.998;2022-09-01T02:33:38;16.90;45.80
1351;DHT22;669;50.206;9.998;2022-09-01T02:36:08;16.90;45.80
1351;DHT22;669;50.206;9.998;2022-09-01T02:38:38;16.80;45.70
1351;DHT22;669;50.206;9.998;2022-09-01T02:41:08;16.70;45.90
1351;DHT22;669;50.206;9.998;2022-09-01T02:43:39;16.70;46.00
1351;DHT22;669;50.206;9.998;2022-09-01T02:46:09;16.70;46.00
1351;DHT22;669;50.206;9.998;2022-09-01T02:48:39;16.60;46.10
1351;DHT22;669;50.206;9.998;2022-09-01T02:51:10;16.50;46.40
1351;DHT22;669;50.206;9.998;2022-09-01T02:53:40;16.40;46.50
1351;DHT22;669;50.206;9.998;2022-09-01T02:56:11;16.20;46.50
1351;DHT22;669;50.206;9.998;2022-09-01T02:58:42;16.10;46.90
1351;DHT22;669;50.206;9.998;2022-09-01T03:01:14;16.00;46.90
1351;DHT22;669;50.206;9.998;2022-09-01T03:03:50;16.00;46.90
1351;DHT22;669;50.206;9.998;2022-09-01T03:06:18;15.90;47.10
1351;DHT22;669;50.206;9.998;2022-09-01T03:08:51;15.90;47.30
1351;DHT22;669;50.206;9.998;2022-09-01T03:11:21;15.80;47.60
1351;DHT22;669;50.206;9.998;2022-09-01T03:13:51;15.80;47.80
1351;DHT22;669;50.206;9.998;2022-09-01T03:16:19;15.80;47.40
1351;DHT22;669;50.206;9.998;2022-09-01T03:18:48;15.70;47.70
1351;DHT22;669;50.206;9.998;2022-09-01T03:21:17;15.60;47.30
1351;DHT22;669;50.206;9.998;2022-09-01T03:23:46;15.50;47.80
1351;DHT22;669;50.206;9.998;2022-09-01T03:26:15;15.40;47.90
1351;DHT22;669;50.206;9.998;2022-09-01T03:28:46;15.30;48.50
1351;DHT22;669;50.206;9.998;2022-09-01T03:31:16;15.10;48.10
1351;DHT22;669;50.206;9.998;2022-09-01T03:33:45;15.10;49.10
1351;DHT22;669;50.206;9.998;2022-09-01T03:36:13;15.00;49.70
1351;DHT22;669;50.206;9.998;2022-09-01T03:38:46;15.10;49.60
1351;DHT22;669;50.206;9.998;2022-09-01T03:41:17;15.00;49.60
1351;DHT22;669;50.206;9.998;2022-09-01T03:43:47;15.00;49.60
1351;DHT22;669;50.206;9.998;2022-09-01T03:46:16;15.00;49.70
1351;DHT22;669;50.206;9.998;2022-09-01T03:48:49;15.00;49.50
1351;DHT22;669;50.206;9.998;2022-09-01T03:51:18;14.90;49.70
1351;DHT22;669;50.206;9.998;2022-09-01T03:53:49;14.90;49.70
1351;DHT22;669;50.206;9.998;2022-09-01T03:56:20;14.90;49.80
1351;DHT22;669;50.206;9.998;2022-09-01T03:58:51;14.90;49.70
1351;DHT22;669;50.206;9.998;2022-09-01T04:01:20;14.90;50.00
1351;DHT22;669;50.206;9.998;2022-09-01T04:03:49;14.90;49.60
1351;DHT22;669;50.206;9.998;2022-09-01T04:06:18;14.90;49.60
1351;DHT22;669;50.206;9.998;2022-09-01T04:08:50;14.80;49.90
1351;DHT22;669;50.206;9.998;2022-09-01T04:11:29;14.70;49.80
1351;DHT22;669;50.206;9.998;2022-09-01T04:13:59;14.60;49.40
1351;DHT22;669;50.206;9.998;2022-09-01T04:16:30;14.50;50.40
1351;DHT22;669;50.206;9.998;2022-09-01T04:19:18;14.40;50.40
1351;DHT22;669;50.206;9.998;2022-09-01T04:21:47;14.20;50.70
1351;DHT22;669;50.206;9.998;2022-09-01T04:24:17;14.10;51.10
1351;DHT22;669;50.206;9.998;2022-09-01T04:26:46;14.00;51.60
1351;DHT22;669;50.206;9.998;2022-09-01T04:29:17;14.00;51.50
1351;DHT22;669;50.206;9.998;2022-09-01T04:31:53;14.00;51.20
1351;DHT22;669;50.206;9.998;2022-09-01T04:34:22;14.00;51.90
1351;DHT22;669;50.206;9.998;2022-09-01T04:36:51;14.00;51.60
1351;DHT22;669;50.206;9.998;2022-09-01T04:39:21;14.00;51.70
1351;DHT22;669;50.206;9.998;2022-09-01T04:41:49;14.00;52.00
1351;DHT22;669;50.206;9.998;2022-09-01T04:44:19;13.90;51.60
1351;DHT22;669;50.206;9.998;2022-09-01T04:46:47;13.80;51.50
1351;DHT22;669;50.206;9.998;2022-09-01T04:49:17;13.70;52.50
1351;DHT22;669;50.206;9.998;2022-09-01T04:51:49;13.80;52.80
1351;DHT22;669;50.206;9.998;2022-09-01T04:54:20;13.90;52.80
1351;DHT22;669;50.206;9.998;2022-09-01T04:56:49;14.00;52.70
1351;DHT22;669;50.206;9.998;2022-09-01T04:59:22;14.20;52.40
1351;DHT22;669;50.206;9.998;2022-09-01T05:01:53;14.30;52.30
1351;DHT22;669;50.206;9.998;2022-09-01T05:04:24;14.30;52.10
1351;DHT22;669;50.206;9.998;2022-09-01T05:06:55;14.40;51.70
1351;DHT22;669;50.206;9.998;2022-09-01T05:09:26;14.50;51.40
1351;DHT22;669;50.206;9.998;2022-09-01T05:11:55;14.70;51.30
1351;DHT22;669;50.206;9.998;2022-09-01T05:14:25;14.90;51.10
1351;DHT22;669;50.206;9.998;2022-09-01T05:16:56;15.20;50.60
1351;DHT22;669;50.206;9.998;2022-09-01T05:19:24;15.60;49.80
1351;DHT22;669;50.206;9.998;2022-09-01T05:21:54;15.90;49.00
1351;DHT22;669;50.206;9.998;2022-09-01T05:24:24;16.20;48.10
1351;DHT22;669;50.206;9.998;2022-09-01T05:26:55;16.40;47.80
1351;DHT22;669;50.206;9.998;2022-09-01T05:29:27;16.50;47.30
1351;DHT22;669;50.206;9.998;2022-09-01T05:31:55;16.60;46.80
1351;DHT22;669;50.206;9.998;2022-09-01T05:34:25;16.70;47.00
1351;DHT22;669;50.206;9.998;2022-09-01T05:36:55;16.90;47.00
1351;DHT22;669;50.206;9.998;2022-09-01T05:39:25;17.10;46.10
1351;DHT22;669;50.206;9.998;2022-09-01T05:41:54;17.20;46.30
1351;DHT22;669;50.206;9.998;2022-09-01T05:44:23;17.10;46.60
1351;DHT22;669;50.206;9.998;2022-09-01T05:46:52;17.00;47.10
1351;DHT22;669;50.206;9.998;2022-09-01T05:49:21;16.90;46.80
1351;DHT22;669;50.206;9.998;2022-09-01T05:51:50;16.90;47.00
1351;DHT22;669;50.206;9.998;2022-09-01T05:54:24;16.90;47.00
1351;DHT22;669;50.206;9.998;2022-09-01T05:56:54;16.90;47.20
1351;DHT22;669;50.206;9.998;2022-09-01T05:59:33;16.90;47.10
1351;DHT22;669;50.206;9.998;2022-09-01T06:02:03;16.90;47.00
1351;DHT22;669;50.206;9.998;2022-09-01T06:04:34;16.90;47.00
1351;DHT22;669;50.206;9.998;2022-09-01T06:07:06;16.80;47.00
1351;DHT22;669;50.206;9.998;2022-09-01T06:09:43;16.90;47.10
1351;DHT22;669;50.206;9.998;2022-09-01T06:12:12;17.20;47.30
1351;DHT22;669;50.206;9.998;2022-09-01T06:14:45;17.60;46.40
1351;DHT22;669;50.206;9.998;2022-09-01T06:17:16;17.90;45.40
1351;DHT22;669;50.206;9.998;2022-09-01T06:19:47;18.20;44.50
1351;DHT22;669;50.206;9.998;2022-09-01T06:22:15;18.60;44.20
1351;DHT22;669;50.206;9.998;2022-09-01T06:24:44;18.80;43.10
1351;DHT22;669;50.206;9.998;2022-09-01T06:27:21;19.00;42.80
1351;DHT22;669;50.206;9.998;2022-09-01T06:29:49;19.00;42.40
1351;DHT22;669;50.206;9.998;2022-09-01T06:32:20;18.70;42.60
1351;DHT22;669;50.206;9.998;2022-09-01T06:34:51;18.80;42.90
1351;DHT22;669;50.206;9.998;2022-09-01T06:37:20;19.20;42.60
1351;DHT22;669;50.206;9.998;2022-09-01T06:39:48;19.60;41.60
1351;DHT22;669;50.206;9.998;2022-09-01T06:42:17;19.90;40.40
1351;DHT22;669;50.206;9.998;2022-09-01T06:44:45;19.60;40.40
1351;DHT22;669;50.206;9.998;2022-09-01T06:47:13;20.00;41.00
1351;DHT22;669;50.206;9.998;2022-09-01T06:49:43;20.20;40.40
1351;DHT22;669;50.206;9.998;2022-09-01T06:52:11;20.30;39.80
1351;DHT22;669;50.206;9.998;2022-09-01T06:54:39;20.30;39.80
1351;DHT22;669;50.206;9.998;2022-09-01T06:57:09;20.10;40.30
1351;DHT22;669;50.206;9.998;2022-09-01T06:59:57;20.30;40.50
1351;DHT22;669;50.206;9.998;2022-09-01T07:02:27;20.80;39.00
1351;DHT22;669;50.206;9.998;2022-09-01T07:05:00;21.00;38.50
1351;DHT22;669;50.206;9.998;2022-09-01T07:07:29;21.10;37.80
1351;DHT22;669;50.206;9.998;2022-09-01T07:10:20;21.30;38.10
1351;DHT22;669;50.206;9.998;2022-09-01T07:12:50;21.80;37.20
1351;DHT22;669;50.206;9.998;2022-09-01T07:15:37;21.80;36.50
1351;DHT22;669;50.206;9.998;2022-09-01T07:18:26;21.70;36.80
1351;DHT22;669;50.206;9.998;2022-09-01T07:20:57;21.50;36.90
1351;DHT22;669;50.206;9.998;2022-09-01T07:23:46;21.50;37.50
1351;DHT22;669;50.206;9.998;2022-09-01T07:26:34;21.60;36.90
1351;DHT22;669;50.206;9.998;2022-09-01T07:29:13;21.40;37.80
1351;DHT22;669;50.206;9.998;2022-09-01T07:31:41;21.20;36.80
1351;DHT22;669;50.206;9.998;2022-09-01T07:34:30;21.30;37.80
1351;DHT22;669;50.206;9.998;2022-09-01T07:37:07;21.50;37.50
1351;DHT22;669;50.206;9.998;2022-09-01T07:39:55;21.60;37.70
1351;DHT22;669;50.206;9.998;2022-09-01T07:42:44;21.90;37.20
1351;DHT22;669;50.206;9.998;2022-09-01T07:45:29;21.90;36.60
1351;DHT22;669;50.206;9.998;2022-09-01T07:47:57;21.90;36.00
1351;DHT22;669;50.206;9.998;2022-09-01T07:50:29;21.40;36.50
1351;DHT22;669;50.206;9.998;2022-09-01T07:53:20;21.20;37.60
1351;DHT22;669;50.206;9.998;2022-09-01T07:55:49;21.00;37.60
1351;DHT22;669;50.206;9.998;2022-09-01T07:58:19;20.80;37.80
1351;DHT22;669;50.206;9.998;2022-09-01T08:00:49;20.70;38.50
1351;DHT22;669;50.206;9.998;2022-09-01T08:03:21;20.60;38.70
1351;DHT22;669;50.206;9.998;2022-09-01T08:05:50;20.60;38.30
1351;DHT22;669;50.206;9.998;2022-09-01T08:08:24;20.60;39.40
1351;DHT22;669;50.206;9.998;2022-09-01T08:10:55;20.80;38.90
1351;DHT22;669;50.206;9.998;2022-09-01T08:13:31;20.80;38.50
1351;DHT22;669;50.206;9.998;2022-09-01T08:16:08;20.90;38.40
1351;DHT22;669;50.206;9.998;2022-09-01T08:18:45;21.10;38.30
1351;DHT22;669;50.206;9.998;2022-09-01T08:21:16;21.00;37.80
1351;DHT22;669;50.206;9.998;2022-09-01T08:23:46;21.20;37.50
1351;DHT22;669;50.206;9.998;2022-09-01T08:26:16;21.50;37.60
1351;DHT22;669;50.206;9.998;2022-09-01T08:28:44;21.60;37.20
1351;DHT22;669;50.206;9.998;2022-09-01T08:31:22;21.50;37.30
1351;DHT22;669;50.206;9.998;2022-09-01T08:33:51;21.40;37.20
1351;DHT22;669;50.206;9.998;2022-09-01T08:36:20;21.50;37.40
1351;DHT22;669;50.206;9.998;2022-09-01T08:38:52;21.60;36.40
1351;DHT22;669;50.206;9.998;2022-09-01T08:41:31;21.90;36.20
1351;DHT22;669;50.206;9.998;2022-09-01T08:44:10;22.30;35.70
1351;DHT22;669;50.206;9.998;2022-09-01T08:46:42;22.60;35.10
1351;DHT22;669;50.206;9.998;2022-09-01T08:49:14;23.00;34.00
1351;DHT22;669;50.206;9.998;2022-09-01T08:51:55;23.40;34.10
1351;DHT22;669;50.206;9.998;2022-09-01T08:54:32;23.80;33.70
1351;DHT22;669;50.206;9.998;2022-09-01T08:57:07;24.30;32.60
1351;DHT22;669;50.206;9.998;2022-09-01T08:59:36;24.50;31.30
1351;DHT22;669;50.206;9.998;2022-09-01T09:02:18;24.80;31.70
1351;DHT22;669;50.206;9.998;2022-09-01T09:04:54;25.10;30.70
1351;DHT22;669;50.206;9.998;2022-09-01T09:07:38;25.10;31.00
1351;DHT22;669;50.206;9.998;2022-09-01T09:10:16;25.00;30.20
1351;DHT22;669;50.206;9.998;2022-09-01T09:12:55;25.30;30.10
1351;DHT22;669;50.206;9.998;2022-09-01T09:15:32;25.50;30.00
1351;DHT22;669;50.206;9.998;2022-09-01T09:18:12;25.60;30.00
1351;DHT22;669;50.206;9.998;2022-09-01T09:21:08;26.00;29.00
1351;DHT22;669;50.206;9.998;2022-09-01T09:23:42;26.40;28.80
1351;DHT22;669;50.206;9.998;2022-09-01T09:26:13;25.80;29.40
1351;DHT22;669;50.206;9.998;2022-09-01T09:28:47;25.70;29.00
1351;DHT22;669;50.206;9.998;2022-09-01T09:31:31;26.00;28.60
1351;DHT22;669;50.206;9.998;2022-09-01T09:34:01;26.20;28.80
1351;DHT22;669;50.206;9.998;2022-09-01T09:36:33;26.50;28.10
1351;DHT22;669;50.206;9.998;2022-09-01T09:39:08;26.70;28.00
1351;DHT22;669;50.206;9.998;2022-09-01T09:41:39;26.80;27.60
1351;DHT22;669;50.206;9.998;2022-09-01T09:44:20;26.70;27.60
1351;DHT22;669;50.206;9.998;2022-09-01T09:46:49;26.60;28.10
1351;DHT22;669;50.206;9.998;2022-09-01T09:49:19;26.00;28.20
1351;DHT22;669;50.206;9.998;2022-09-01T09:52:14;25.10;28.90
1351;DHT22;669;50.206;9.998;2022-09-01T09:54:58;24.50;29.20
1351;DHT22;669;50.206;9.998;2022-09-01T09:57:29;24.80;29.10
1351;DHT22;669;50.206;9.998;2022-09-01T10:00:00;25.60;27.70
1351;DHT22;669;50.206;9.998;2022-09-01T10:02:32;25.90;27.10
1351;DHT22;669;50.206;9.998;2022-09-01T10:05:22;26.00;26.70
1351;DHT22;669;50.206;9.998;2022-09-01T10:07:51;26.60;26.70
1351;DHT22;669;50.206;9.998;2022-09-01T10:10:29;26.60;25.40
1351;DHT22;669;50.206;9.998;2022-09-01T10:12:59;26.30;26.50
1351;DHT22;669;50.206;9.998;2022-09-01T10:15:31;26.20;26.40
1351;DHT22;669;50.206;9.998;2022-09-01T10:18:05;25.60;25.60
1351;DHT22;669;50.206;9.998;2022-09-01T10:20:56;24.90;26.50
1351;DHT22;669;50.206;9.998;2022-09-01T10:23:29;24.40;27.20
1351;DHT22;669;50.206;9.998;2022-09-01T10:26:01;24.30;27.80
1351;DHT22;669;50.206;9.998;2022-09-01T10:28:40;23.90;25.90
1351;DHT22;669;50.206;9.998;2022-09-01T10:31:15;23.70;26.80
1351;DHT22;669;50.206;9.998;2022-09-01T10:33:44;23.40;27.60
1351;DHT22;669;50.206;9.998;2022-09-01T10:36:12;23.00;27.50
1351;DHT22;669;50.206;9.998;2022-09-01T10:38:49;22.70;28.40
1351;DHT22;669;50.206;9.998;2022-09-01T10:41:45;22.70;29.00
1351;DHT22;669;50.206;9.998;2022-09-01T10:44:27;22.90;28.40
1351;DHT22;669;50.206;9.998;2022-09-01T10:47:01;23.20;28.30
1351;DHT22;669;50.206;9.998;2022-09-01T10:53:02;23.90;28.00
1351;DHT22;669;50.206;9.998;2022-09-01T10:55:34;24.00;27.60
1351;DHT22;669;50.206;9.998;2022-09-01T11:05:12;25.30;26.00
1351;DHT22;669;50.206;9.998;2022-09-01T11:07:42;25.50;25.70
1351;DHT22;669;50.206;9.998;2022-09-01T11:10:51;25.50;25.70
1351;DHT22;669;50.206;9.998;2022-09-01T11:13:43;25.00;25.90
1351;DHT22;669;50.206;9.998;2022-09-01T11:16:29;25.00;25.90
1351;DHT22;669;50.206;9.998;2022-09-01T11:19:31;25.00;25.40
1351;DHT22;669;50.206;9.998;2022-09-01T11:22:10;24.80;25.70
1351;DHT22;669;50.206;9.998;2022-09-01T11:24:49;24.60;25.60
1351;DHT22;669;50.206;9.998;2022-09-01T11:27:56;24.50;25.50
1351;DHT22;669;50.206;9.998;2022-09-01T11:30:34;24.40;25.50
1351;DHT22;669;50.206;9.998;2022-09-01T11:33:12;24.60;26.70
1351;DHT22;669;50.206;9.998;2022-09-01T11:35:45;24.40;25.50
1351;DHT22;669;50.206;9.998;2022-09-01T11:38:17;23.90;26.10
1351;DHT22;669;50.206;9.998;2022-09-01T11:40:54;23.70;26.30
1351;DHT22;669;50.206;9.998;2022-09-01T11:43:24;23.40;27.00
1351;DHT22;669;50.206;9.998;2022-09-01T11:46:02;23.30;27.10
1351;DHT22;669;50.206;9.998;2022-09-01T11:48:33;23.20;27.20
1351;DHT22;669;50.206;9.998;2022-09-01T11:51:02;23.10;27.30
1351;DHT22;669;50.206;9.998;2022-09-01T11:53:32;23.20;27.10
1351;DHT22;669;50.206;9.998;2022-09-01T11:56:12;23.00;27.00
1351;DHT22;669;50.206;9.998;2022-09-01T11:58:40;22.90;26.50
1351;DHT22;669;50.206;9.998;2022-09-01T12:01:15;22.80;27.10
1351;DHT22;669;50.206;9.998;2022-09-01T12:03:44;22.70;26.80
1351;DHT22;669;50.206;9.998;2022-09-01T12:06:23;22.80;27.60
1351;DHT22;669;50.206;9.998;2022-09-01T12:08:58;23.10;28.20
1351;DHT22;669;50.206;9.998;2022-09-01T12:11:29;24.00;27.30
1351;DHT22;669;50.206;9.998;2022-09-01T12:14:00;25.00;25.90
1351;DHT22;669;50.206;9.998;2022-09-01T12:16:36;25.20;25.40
1351;DHT22;669;50.206;9.998;2022-09-01T12:19:06;25.30;24.70
1351;DHT22;669;50.206;9.998;2022-09-01T12:21:36;25.10;25.50
1351;DHT22;669;50.206;9.998;2022-09-01T12:24:12;25.30;24.50
1351;DHT22;669;50.206;9.998;2022-09-01T12:26:42;25.80;24.70
1351;DHT22;669;50.206;9.998;2022-09-01T12:29:11;25.70;24.20
1351;DHT22;669;50.206;9.998;2022-09-01T12:31:40;25.60;24.50
1351;DHT22;669;50.206;9.998;2022-09-01T12:34:24;25.60;24.40
1351;DHT22;669;50.206;9.998;2022-09-01T12:37:03;25.50;23.90
1351;DHT22;669;50.206;9.998;2022-09-01T12:39:35;25.30;23.80
1351;DHT22;669;50.206;9.998;2022-09-01T12:42:07;25.10;24.20
1351;DHT22;669;50.206;9.998;2022-09-01T12:44:47;25.00;24.40
1351;DHT22;669;50.206;9.998;2022-09-01T12:47:43;24.90;24.60
1351;DHT22;669;50.206;9.998;2022-09-01T12:50:35;24.60;24.50
1351;DHT22;669;50.206;9.998;2022-09-01T12:53:14;24.50;24.40
1351;DHT22;669;50.206;9.998;2022-09-01T12:55:55;24.40;25.10
1351;DHT22;669;50.206;9.998;2022-09-01T12:58:26;24.40;24.70
1351;DHT22;669;50.206;9.998;2022-09-01T13:00:58;24.40;24.40
1351;DHT22;669;50.206;9.998;2022-09-01T13:03:27;24.70;24.40
1351;DHT22;669;50.206;9.998;2022-09-01T13:05:57;24.80;24.10
1351;DHT22;669;50.206;9.998;2022-09-01T13:08:27;24.80;24.60
1351;DHT22;669;50.206;9.998;2022-09-01T13:11:00;25.10;23.40
1351;DHT22;669;50.206;9.998;2022-09-01T13:13:29;25.50;24.20
1351;DHT22;669;50.206;9.998;2022-09-01T13:15:58;25.50;22.60
1351;DHT22;669;50.206;9.998;2022-09-01T13:18:27;25.50;21.70
1351;DHT22;669;50.206;9.998;2022-09-01T13:20:57;25.30;22.60
1351;DHT22;669;50.206;9.998;2022-09-01T13:23:25;25.20;22.40
1351;DHT22;669;50.206;9.998;2022-09-01T13:25:53;25.20;23.10
1351;DHT22;669;50.206;9.998;2022-09-01T13:28:22;24.90;22.60
1351;DHT22;669;50.206;9.998;2022-09-01T13:30:54;24.50;23.00
1351;DHT22;669;50.206;9.998;2022-09-01T13:33:44;24.40;23.30
1351;DHT22;669;50.206;9.998;2022-09-01T13:36:32;24.30;22.90
1351;DHT22;669;50.206;9.998;2022-09-01T13:39:18;24.10;23.10
1351;DHT22;669;50.206;9.998;2022-09-01T13:41:46;24.00;23.00
1351;DHT22;669;50.206;9.998;2022-09-01T13:44:16;24.00;23.40
1351;DHT22;669;50.206;9.998;2022-09-01T13:46:45;24.00;23.00
1351;DHT22;669;50.206;9.998;2022-09-01T13:49:33;24.00;23.50
1351;DHT22;669;50.206;9.998;2022-09-01T13:52:21;24.30;23.00
1351;DHT22;669;50.206;9.998;2022-09-01T13:54:49;24.30;22.30
1351;DHT22;669;50.206;9.998;2022-09-01T13:57:17;24.10;22.60
1351;DHT22;669;50.206;9.998;2022-09-01T13:59:46;24.00;23.00
1351;DHT22;669;50.206;9.998;2022-09-01T14:02:14;23.90;23.40
1351;DHT22;669;50.206;9.998;2022-09-01T14:04:43;23.90;23.30
1351;DHT22;669;50.206;9.998;2022-09-01T14:07:12;23.80;23.60
1351;DHT22;669;50.206;9.998;2022-09-01T14:09:41;24.10;24.20
1351;DHT22;669;50.206;9.998;2022-09-01T14:12:09;24.30;23.30
1351;DHT22;669;50.206;9.998;2022-09-01T14:14:37;24.20;22.30
1351;DHT22;669;50.206;9.998;2022-09-01T14:17:27;23.90;23.40
1351;DHT22;669;50.206;9.998;2022-09-01T14:19:55;23.80;23.20
1351;DHT22;669;50.206;9.998;2022-09-01T14:22:23;24.10;23.40
1351;DHT22;669;50.206;9.998;2022-09-01T14:24:51;24.40;23.60
1351;DHT22;669;50.206;9.998;2022-09-01T14:27:19;24.90;23.40
1351;DHT22;669;50.206;9.998;2022-09-01T14:29:48;25.20;22.50
1351;DHT22;669;50.206;9.998;2022-09-01T14:32:21;25.70;22.00
1351;DHT22;669;50.206;9.998;2022-09-01T14:34:54;25.80;21.10
1351;DHT22;669;50.206;9.998;2022-09-01T14:37:23;25.60;21.20
1351;DHT22;669;50.206;9.998;2022-09-01T14:39:52;25.60;22.10
1351;DHT22;669;50.206;9.998;2022-09-01T14:42:21;25.60;21.80
1351;DHT22;669;50.206;9.998;2022-09-01T14:44:51;25.70;21.50
1351;DHT22;669;50.206;9.998;2022-09-01T14:47:19;25.50;21.70
1351;DHT22;669;50.206;9.998;2022-09-01T14:49:51;25.10;21.60
1351;DHT22;669;50.206;9.998;2022-09-01T14:52:21;24.50;22.50
1351;DHT22;669;50.206;9.998;2022-09-01T14:54:50;24.20;23.20
1351;DHT22;669;50.206;9.998;2022-09-01T14:57:18;24.10;23.30
1351;DHT22;669;50.206;9.998;2022-09-01T14:59:57;23.90;23.60
1351;DHT22;669;50.206;9.998;2022-09-01T15:02:25;23.60;24.10
1351;DHT22;669;50.206;9.998;2022-09-01T15:04:54;23.50;24.10
1351;DHT22;669;50.206;9.998;2022-09-01T15:07:24;23.40;24.60
1351;DHT22;669;50.206;9.998;2022-09-01T15:09:52;23.50;25.10
1351;DHT22;669;50.206;9.998;2022-09-01T15:12:20;23.40;24.80
1351;DHT22;669;50.206;9.998;2022-09-01T15:14:48;23.50;24.90
1351;DHT22;669;50.206;9.998;2022-09-01T15:17:16;23.40;24.40
1351;DHT22;669;50.206;9.998;2022-09-01T15:19:44;23.40;24.30
1351;DHT22;669;50.206;9.998;2022-09-01T15:22:12;23.30;24.70
1351;DHT22;669;50.206;9.998;2022-09-01T15:24:42;23.30;24.70
1351;DHT22;669;50.206;9.998;2022-09-01T15:27:10;23.30;24.00
1351;DHT22;669;50.206;9.998;2022-09-01T15:29:38;23.40;24.70
1351;DHT22;669;50.206;9.998;2022-09-01T15:32:11;23.40;24.80
1351;DHT22;669;50.206;9.998;2022-09-01T15:34:53;23.40;23.40
1351;DHT22;669;50.206;9.998;2022-09-01T15:37:21;23.30;23.60
1351;DHT22;669;50.206;9.998;2022-09-01T15:39:51;23.40;24.30
1351;DHT22;669;50.206;9.998;2022-09-01T15:42:18;23.30;23.50
1351;DHT22;669;50.206;9.998;2022-09-01T15:44:47;23.10;24.50
1351;DHT22;669;50.206;9.998;2022-09-01T15:47:15;23.00;24.50
1351;DHT22;669;50.206;9.998;2022-09-01T15:49:43;22.90;24.50
1351;DHT22;669;50.206;9.998;2022-09-01T15:52:12;22.90;24.50
1351;DHT22;669;50.206;9.998;2022-09-01T15:54:40;22.80;24.50
1351;DHT22;669;50.206;9.998;2022-09-01T15:57:10;22.90;24.50
1351;DHT22;669;50.206;9.998;2022-09-01T15:59:38;22.90;24.50
1351;DHT22;669;50.206;9.998;2022-09-01T16:02:10;22.90;24.50
1351;DHT22;669;50.206;9.998;2022-09-01T16:04:40;23.00;24.50
1351;DHT22;669;50.206;9.998;2022-09-01T16:07:08;23.00;24.50
1351;DHT22;669;50.206;9.998;2022-09-01T16:09:36;23.10;24.30
1351;DHT22;669;50.206;9.998;2022-09-01T16:12:05;23.00;24.20
1351;DHT22;669;50.206;9.998;2022-09-01T16:14:34;23.00;24.40
1351;DHT22;669;50.206;9.998;2022-09-01T16:17:05;23.00;24.20
1351;DHT22;669;50.206;9.998;2022-09-01T16:19:47;22.90;24.50
1351;DHT22;669;50.206;9.998;2022-09-01T16:22:20;22.90;24.10
1351;DHT22;669;50.206;9.998;2022-09-01T16:24:51;22.90;24.40
1351;DHT22;669;50.206;9.998;2022-09-01T16:27:22;22.90;23.70
1351;DHT22;669;50.206;9.998;2022-09-01T16:29:54;22.90;23.30
1351;DHT22;669;50.206;9.998;2022-09-01T16:32:22;22.70;24.20
1351;DHT22;669;50.206;9.998;2022-09-01T16:34:51;22.70;24.30
1351;DHT22;669;50.206;9.998;2022-09-01T16:37:35;22.70;24.30
1351;DHT22;669;50.206;9.998;2022-09-01T16:40:11;22.70;24.30
1351;DHT22;669;50.206;9.998;2022-09-01T16:42:45;22.70;24.20
1351;DHT22;669;50.206;9.998;2022-09-01T16:45:35;22.70;24.30
1351;DHT22;669;50.206;9.998;2022-09-01T16:48:15;22.60;24.30
1351;DHT22;669;50.206;9.998;2022-09-01T16:50:49;22.60;24.40
1351;DHT22;669;50.206;9.998;2022-09-01T16:53:36;22.60;24.30
1351;DHT22;669;50.206;9.998;2022-09-01T16:56:08;22.50;24.20
1351;DHT22;669;50.206;9.998;2022-09-01T16:58:45;22.40;24.10
1351;DHT22;669;50.206;9.998;2022-09-01T17:01:26;22.40;24.10
1351;DHT22;669;50.206;9.998;2022-09-01T17:04:15;22.30;24.10